Flight Track Log - Related Links

Times and Time Zones

All times are in EDT time to prevent confusion due to time zone crossing. See the EGF3682 flight status page for this flight to view local times or setup timezone preferences in your user account.

Time Position Orientation Groundspeed Altitude Reporting Facility
EDT Latitude Longitude Course Direction KTS MPH feet Rate Location/Type
Sun 07:58:54 PM 42.0000 -87.8833 90° East 156 180 1,800  Level Chicago TRACON
Sun 07:59:54 PM 42.0000 -87.8000 90° East 228 262 3,600 2,381 Climbing Chicago TRACON
Sun 08:01:00 PM 42.0443 -87.4069 79° East  Level FlightAware Approximate
Sun 08:02:00 PM 42.0695 -87.2403 78° East  Level FlightAware Approximate
Sun 08:02:08 PM 42.0508 -87.6053 71° East 285 328 9,500  Level Chicago Center
Sun 08:03:00 PM 42.0960 -87.0739 77° East  Level FlightAware Approximate
Sun 08:03:10 PM 42.0644 -87.4714 82° East 298 343 12,800  Level Chicago Center
Sun 08:04:00 PM 42.1167 -86.9223 90° East  Level FlightAware Approximate
Sun 08:04:12 PM 42.0786 -87.3486 81° East 324 373 14,600  Level Chicago Center
Sun 08:05:14 PM 42.0947 -87.2108 81° East 364 419 16,000 1,355 Climbing Chicago Center
Sun 08:06:16 PM 42.1117 -87.0614 81° East 395 455 17,400 1,306 Climbing Chicago Center
Sun 08:07:18 PM 42.1181 -86.9000 87° East 426 490 18,700 1,403 Climbing Chicago Center
Sun 08:08:20 PM 42.1247 -86.6992 87° East 445 512 20,300 1,306 Climbing Chicago Center
Sun 08:09:22 PM 42.1303 -86.5483 87° East 459 528 21,400 1,104 Climbing Chicago Center
Sun 08:10:25 PM 42.1364 -86.3719 87° East 469 540 22,600 1,296 Climbing Chicago Center
Sun 08:11:27 PM 42.1431 -86.1583 88° East 475 547 24,100 1,306 Climbing Chicago Center
Sun 08:12:29 PM 42.1436 -85.9758 90° East 484 557 25,300 1,113 Climbing Chicago Center
Sun 08:13:31 PM 42.1417 -85.8108 91° East 485 558 26,400 1,113 Climbing Chicago Center
Sun 08:14:33 PM 42.1400 -85.6292 91° East 487 560 27,600 1,258 Climbing Chicago Center
Sun 08:15:35 PM 42.1386 -85.4114 90° East 490 564 29,000 1,200 Climbing Chicago Center
Sun 08:15:58 PM 42.1381 -85.3553 91° East 515 593 29,300 940 Climbing Cleveland Center
Sun 08:16:58 PM 42.1372 -85.1706 90° East 503 579 30,300 1,050 Climbing Cleveland Center
Sun 08:17:58 PM 42.1347 -84.9686 91° East 498 573 31,400 1,050 Climbing Cleveland Center
Sun 08:18:58 PM 42.1292 -84.7833 92° East 493 567 32,400 900 Climbing Cleveland Center
Sun 08:19:58 PM 42.1192 -84.5950 94° East 499 574 33,200 750 Climbing Cleveland Center
Sun 08:20:58 PM 42.1047 -84.4094 96° East 499 574 33,900 600 Climbing Cleveland Center
Sun 08:21:58 PM 42.0917 -84.2350 96° East 504 580 34,400 500 Climbing Cleveland Center
Sun 08:22:58 PM 42.0786 -84.0439 95° East 504 580 34,900 300 Climbing Cleveland Center
Sun 08:23:58 PM 42.0656 -83.8475 95° East 511 588 35,000 50 Climbing Cleveland Center
Sun 08:24:58 PM 42.0503 -83.6536 96° East 523 602 35,000  Level Cleveland Center
Sun 08:25:58 PM 42.0350 -83.4319 95° East 536 617 35,000  Level Cleveland Center
Sun 08:26:58 PM 42.0211 -83.2356 95° East 536 617 35,000  Level Cleveland Center
Sun 08:27:58 PM 42.0067 -83.0367 96° East 536 617 35,000  Level Cleveland Center
Sun 08:28:58 PM 41.9919 -82.8433 96° East 536 617 35,000  Level Cleveland Center
Sun 08:29:58 PM 41.9747 -82.6417 96° East 541 623 35,000  Level Cleveland Center
Sun 08:30:58 PM 41.9617 -82.4428 95° East 541 623 35,000  Level Cleveland Center
Sun 08:31:58 PM 41.9417 -82.2469 98° East 541 623 35,000  Level Cleveland Center
Sun 08:32:58 PM 41.9294 -82.0681 95° East 536 617 35,000  Level Cleveland Center
Sun 08:33:58 PM 41.9131 -81.8667 96° East 541 623 35,000  Level Cleveland Center
Sun 08:34:58 PM 41.8964 -81.6656 96° East 541 623 35,000  Level Cleveland Center
Sun 08:35:58 PM 41.8775 -81.4478 97° East 541 623 35,000  Level Cleveland Center
Sun 08:36:58 PM 41.8581 -81.2467 97° East 541 623 35,000  Level Cleveland Center
Sun 08:37:58 PM 41.8403 -81.0458 97° East 541 623 35,000  Level Cleveland Center
Sun 08:38:58 PM 41.8222 -80.8450 97° East 541 623 35,000  Level Cleveland Center
Sun 08:39:58 PM 41.8036 -80.6472 97° East 541 623 35,000  Level Cleveland Center
Sun 08:40:58 PM 41.7847 -80.4494 97° East 535 616 35,000  Level Cleveland Center
Sun 08:41:58 PM 41.7636 -80.2492 98° East 535 616 35,000  Level Cleveland Center
Sun 08:42:58 PM 41.7461 -80.0711 97° East 541 623 35,000  Level Cleveland Center
Sun 08:43:58 PM 41.7264 -79.8736 98° East 536 617 35,000  Level Cleveland Center
Sun 08:44:58 PM 41.7064 -79.6764 98° East 542 624 35,000  Level Cleveland Center
Sun 08:45:58 PM 41.6814 -79.4572 99° East 542 624 35,000  Level Cleveland Center
Sun 08:46:58 PM 41.6653 -79.3017 98° East 542 624 35,000  Level Cleveland Center
Sun 08:47:58 PM 41.6394 -79.0633 98° East 542 624 35,000 -50 Level Cleveland Center
Sun 08:48:58 PM 41.6158 -78.8667 99° East 542 624 34,900 -699 Descending Cleveland Center
Sun 08:50:41 PM 41.5828 -78.5561 98° East 538 619 33,100 -1,031 Descending New York Center
Sun 08:51:41 PM 41.5603 -78.3594 99° East 532 612 32,100 -992 Descending New York Center
Sun 08:52:42 PM 41.5372 -78.1628 99° East 527 606 31,100 -550 Descending New York Center
Sun 08:53:41 PM 41.5133 -77.9717 99° East 527 606 31,000 -50 Descending New York Center
Sun 08:54:43 PM 41.4856 -77.7775 101° East 527 606 31,000 -100 Level New York Center
Sun 08:55:41 PM 41.4592 -77.5836 100° East 527 606 30,800 -900 Descending New York Center
Sun 08:56:43 PM 41.4272 -77.3756 102° East 533 613 29,200 -1,550 Descending New York Center
Sun 08:57:41 PM 41.4000 -77.1903 101° East 516 594 27,700 -1,513 Descending New York Center
Sun 08:58:42 PM 41.3722 -77.0081 101° East 511 588 26,200 -1,488 Descending New York Center
Sun 08:59:42 PM 41.3461 -76.8286 101° East 506 582 24,700 -1,488 Descending New York Center
Sun 09:00:43 PM 41.3067 -76.6567 107° East 494 568 23,200 -1,488 Descending New York Center
Sun 09:01:43 PM 41.2622 -76.5008 111° Southeast 476 548 21,700 -1,500 Descending New York Center
Sun 09:02:43 PM 41.2233 -76.3569 110° East 462 532 20,200 -1,373 Descending New York Center
Sun 09:03:41 PM 41.1772 -76.1850 110° East 455 524 19,000 -763 Descending New York Center
Sun 09:04:41 PM 41.1397 -76.0442 109° East 455 524 18,700 -738 Descending New York Center
Sun 09:05:43 PM 41.0969 -75.8811 109° East 438 504 17,500 -934 Descending New York Center
Sun 09:06:43 PM 41.0553 -75.7322 110° East 438 504 16,800 -1,059 Descending New York Center
Sun 09:07:42 PM 41.0156 -75.5889 110° East 431 496 15,400 -1,800 Descending New York Center
Sun 09:08:43 PM 40.9789 -75.4628 111° Southeast 418 481 13,200 -2,033 Descending New York Center
Sun 09:09:43 PM 40.9425 -75.3283 110° East 399 459 11,300 -1,664 Descending New York Center
Sun 09:10:42 PM 40.9094 -75.2108 110° East 360 414 9,900 -1,475 Descending New York Center
Sun 09:11:41 PM 40.8781 -75.0989 110° East 307 353 8,400 -1,250 Descending New York Center
Sun 09:12:42 PM 40.8486 -74.9956 111° Southeast 295 339 7,400 -750 Descending New York Center
Sun 09:13:41 PM 40.8189 -74.8922 111° Southeast 295 339 6,900 -595 Descending New York Center
Sun 09:14:43 PM 40.8269 -74.7803 85° East 294 338 6,200 -450 Descending New York Center
Sun 09:15:41 PM 40.8489 -74.6856 73° East 298 343 6,000 -102 Descending New York Center
Sun 09:16:41 PM 40.8756 -74.5719 73° East 298 343 6,000 -347 Level New York Center
Sun 09:17:42 PM 40.8972 -74.4797 73° East 298 343 5,300 -492 Descending New York Center
Sun 09:18:43 PM 40.9236 -74.3658 73° East 293 337 5,000 -443 Descending New York Center
Sun 09:19:44 PM 40.9450 -74.2792 72° East 288 331 4,400 -504 Descending New York Center
Sun 09:20:42 PM 40.9661 -74.1922 72° East 262 302 4,000 -203 Descending New York Center
Sun 09:21:42 PM 40.9392 -74.1167 115° Southeast 208 239 4,000 -50 Level New York Center
Sun 09:22:43 PM 40.9097 -74.0578 123° Southeast 208 239 3,900 -504 Descending New York Center
Sun 09:23:41 PM 40.8600 -74.0417 166° South 175 201 3,000 -931 Descending New York Center

Login

Don't have an account? Register now (free) for customized features, flight alerts, and more!